Voorhies, Iowa
Current Conditions -  °F | °C
As of 8:54 PM on Thursday 18 Dec 2014 (Local Time) from KALO Reporting Station
Overcast Overcast  
Wind Chill: 24°   Ceiling: 4300
Heat Index: 24°   Visibility: 10mi
Dew Point: 18°   Wind: 0mph
Humidity: 77%   Direction: NA
Pressure: 30.27"   Gusts: NA
Location:  42.351°N, 92.4663°W
Report Text: KALO 190254Z 00000KT 10SM OVC043 M04/M08 A3027 RMK AO2 SLP264 T10441078 51001
Loading
Personal Weather Stations






























Interactive Weather Map New forecast layout! Learn more

10-Day Weather Forecast

Advertisements
Track Severe Weather on mobile